Time;durP1;ratioP1;P1;durP2;ratioP2;P2;SDS_P1;SDS_P2;PMS_P1;PMS_P2;Temp;Humidity;BMP_temperature;BMP_pressure;BME280_temperature;BME280_humidity;BME280_pressure;Samples;Min_cycle;Max_cycle;Signal;HPM_P1;HPM_P2
2022/12/24 00:00:32;;;;;;;26.50;4.50;;;11.10;99.90;;;;;;5053157;28;20136;-61
2022/12/24 00:02:58;;;;;;;30.08;4.72;;;11.10;99.90;;;;;;5051829;28;20638;-61
2022/12/24 00:05:23;;;;;;;26.15;4.53;;;11.10;99.90;;;;;;5050725;28;20056;-62
2022/12/24 00:07:49;;;;;;;32.95;4.85;;;11.10;99.90;;;;;;5059886;28;20043;-62
2022/12/24 00:10:14;;;;;;;33.08;5.65;;;11.00;99.90;;;;;;5055046;28;20036;-62
2022/12/24 00:12:40;;;;;;;21.75;4.18;;;11.00;99.90;;;;;;5054819;28;20040;-61
2022/12/24 00:15:06;;;;;;;33.63;4.97;;;11.00;99.90;;;;;;5055273;28;20041;-62
2022/12/24 00:17:32;;;;;;;30.15;5.63;;;10.90;99.90;;;;;;5054956;28;20393;-61
2022/12/24 00:19:58;;;;;;;27.67;4.65;;;11.00;99.90;;;;;;5058676;28;20039;-62
2022/12/24 00:22:24;;;;;;;19.13;5.05;;;10.90;99.90;;;;;;5054578;28;20036;-61
2022/12/24 00:24:49;;;;;;;37.28;5.28;;;10.90;99.90;;;;;;5057015;28;20047;-62
2022/12/24 00:27:15;;;;;;;28.08;4.88;;;10.90;99.90;;;;;;5053427;28;20136;-61
2022/12/24 00:29:41;;;;;;;24.92;4.13;;;10.90;99.90;;;;;;5058130;28;20067;-61
2022/12/24 00:32:08;;;;;;;27.38;5.05;;;10.80;99.90;;;;;;5051641;28;20061;-62
2022/12/24 00:34:35;;;;;;;27.85;4.82;;;10.70;99.90;;;;;;5054564;28;20036;-62
2022/12/24 00:37:01;;;;;;;32.53;6.30;;;10.70;99.90;;;;;;5053171;28;20052;-62
2022/12/24 00:39:26;;;;;;;36.38;5.25;;;10.80;99.90;;;;;;5059442;28;20040;-61
2022/12/24 00:41:52;;;;;;;26.85;4.88;;;10.70;99.90;;;;;;5057277;28;20040;-63
2022/12/24 00:44:17;;;;;;;27.70;5.88;;;10.70;99.90;;;;;;5055818;28;20141;-62
2022/12/24 00:46:43;;;;;;;32.28;6.05;;;10.60;99.90;;;;;;5055536;28;20078;-62
2022/12/24 00:49:11;;;;;;;30.85;4.22;;;10.60;99.90;;;;;;5058691;28;20036;-63
2022/12/24 00:51:37;;;;;;;28.73;4.90;;;10.50;99.90;;;;;;5051946;28;20494;-62
2022/12/24 00:54:03;;;;;;;30.55;5.05;;;10.60;99.90;;;;;;5054016;28;20063;-62
2022/12/24 00:56:28;;;;;;;30.95;5.35;;;10.20;99.90;;;;;;5051009;28;20044;-62
2022/12/24 00:58:55;;;;;;;34.65;6.32;;;10.50;99.90;;;;;;5055877;28;20407;-62
2022/12/24 01:01:22;;;;;;;41.20;6.03;;;10.50;99.90;;;;;;5053353;28;20657;-62
2022/12/24 01:03:47;;;;;;;35.95;5.43;;;10.50;99.90;;;;;;5054831;28;20064;-63
2022/12/24 01:06:16;;;;;;;30.55;5.28;;;10.50;99.90;;;;;;5057824;28;20114;-62
2022/12/24 01:08:42;;;;;;;35.90;6.03;;;10.50;99.90;;;;;;5056798;28;20114;-61
2022/12/24 01:11:09;;;;;;;32.72;5.47;;;10.50;99.90;;;;;;5056369;28;20079;-61
2022/12/24 01:13:35;;;;;;;38.50;6.47;;;10.40;99.90;;;;;;5059897;28;20043;-62
2022/12/24 01:16:01;;;;;;;37.53;6.18;;;10.40;99.90;;;;;;5054421;28;20428;-62
2022/12/24 01:18:27;;;;;;;30.60;5.40;;;10.40;99.90;;;;;;5051803;28;20063;-61
2022/12/24 01:20:57;;;;;;;39.38;5.63;;;10.30;99.90;;;;;;5060282;28;20036;-61
2022/12/24 01:23:23;;;;;;;34.47;5.53;;;10.30;99.90;;;;;;5050240;28;20139;-62
2022/12/24 01:25:49;;;;;;;30.25;5.18;;;10.40;99.90;;;;;;5052551;28;20488;-62
2022/12/24 01:28:14;;;;;;;29.00;5.38;;;10.30;99.90;;;;;;5055576;28;20055;-62
2022/12/24 01:30:41;;;;;;;30.58;5.55;;;10.30;99.90;;;;;;5055053;28;20068;-62
2022/12/24 01:33:06;;;;;;;32.53;4.90;;;10.30;99.90;;;;;;5054044;28;20147;-61
2022/12/24 01:35:32;;;;;;;27.15;5.50;;;10.40;99.90;;;;;;5057612;28;20063;-63
2022/12/24 01:37:57;;;;;;;35.97;5.82;;;10.30;99.90;;;;;;5053024;28;20053;-61
2022/12/24 01:43:23;;;;;;;35.30;5.65;;;10.40;99.90;;;;;;5064029;28;20044;-62
2022/12/24 01:46:03;;;;;;;39.17;6.20;;;10.40;99.90;;;;;;5057038;28;20135;-62
2022/12/24 01:48:46;;;;;;;34.00;5.50;;;10.40;99.90;;;;;;5060084;28;20024;-61
2022/12/24 01:51:22;;;;;;;35.22;5.78;;;10.30;99.90;;;;;;5052988;28;20037;-61
2022/12/24 01:53:55;;;;;;;37.88;6.30;;;10.30;99.90;;;;;;5053977;28;20040;-62
2022/12/24 01:56:21;;;;;;;40.83;6.15;;;10.30;99.90;;;;;;5053920;28;20522;-62
2022/12/24 01:58:53;;;;;;;40.75;6.40;;;10.20;99.90;;;;;;5056842;28;20083;-62
2022/12/24 02:01:18;;;;;;;34.00;6.63;;;10.20;99.90;;;;;;5053746;28;20128;-62
2022/12/24 02:03:44;;;;;;;32.63;5.35;;;10.30;99.90;;;;;;5057524;28;20554;-61
2022/12/24 02:06:14;;;;;;;47.53;6.82;;;10.30;99.90;;;;;;5059961;28;20559;-61
2022/12/24 02:08:40;;;;;;;41.50;5.60;;;10.30;99.90;;;;;;5058336;28;20036;-62
2022/12/24 02:11:20;;;;;;;36.45;6.97;;;10.20;99.90;;;;;;5054730;28;20048;-62
2022/12/24 02:13:52;;;;;;;34.15;6.00;;;10.30;99.90;;;;;;5057866;28;20052;-62
2022/12/24 02:16:45;;;;;;;36.70;6.30;;;10.20;99.90;;;;;;5070729;28;20152;-61
2022/12/24 02:19:28;;;;;;;35.78;6.18;;;10.20;99.90;;;;;;5062324;28;20047;-62
2022/12/24 02:22:01;;;;;;;36.53;5.97;;;10.30;99.90;;;;;;5060757;28;20037;-62
2022/12/24 02:24:34;;;;;;;;;;;10.20;99.90;;;;;;5059699;28;20045;-61
2022/12/24 02:27:12;;;;;;;36.72;6.00;;;10.20;99.90;;;;;;5056375;28;19924;-61
2022/12/24 02:30:02;;;;;;;35.75;4.97;;;10.20;99.90;;;;;;5059241;28;20400;-61
2022/12/24 02:32:43;;;;;;;38.65;5.97;;;10.20;99.90;;;;;;5055800;28;20392;-61
2022/12/24 02:35:11;;;;;;;37.50;6.13;;;10.20;99.90;;;;;;5050895;28;20561;-63
2022/12/24 02:37:46;;;;;;;33.15;5.70;;;10.10;99.90;;;;;;5057583;28;20551;-62
2022/12/24 02:40:22;;;;;;;38.90;6.03;;;10.10;99.90;;;;;;5053992;28;20021;-63
2022/12/24 02:42:54;;;;;;;41.00;6.22;;;10.20;99.90;;;;;;5056107;28;21922;-62
2022/12/24 02:45:26;;;;;;;33.40;6.07;;;10.10;99.90;;;;;;5061694;28;20060;-62
2022/12/24 02:47:53;;;;;;;44.03;6.15;;;10.10;99.90;;;;;;5056291;28;20424;-62
2022/12/24 02:50:19;;;;;;;34.25;5.88;;;10.00;99.90;;;;;;5057326;28;20097;-62
2022/12/24 02:52:45;;;;;;;30.10;6.10;;;10.10;99.90;;;;;;5055234;28;20045;-63
2022/12/24 02:55:27;;;;;;;37.20;5.85;;;10.00;99.90;;;;;;5056341;28;20442;-62
2022/12/24 02:58:23;;;;;;;41.85;6.43;;;10.00;99.90;;;;;;5056705;28;20033;-62
2022/12/24 03:01:14;;;;;;;31.05;5.15;;;10.00;99.90;;;;;;5056821;28;20040;-63
2022/12/24 03:04:18;;;;;;;45.03;6.38;;;10.00;99.90;;;;;;5054013;28;20041;-64
2022/12/24 03:07:10;;;;;;;38.92;5.72;;;10.00;99.90;;;;;;5040199;28;20595;-61
2022/12/24 03:10:05;;;;;;;37.28;5.88;;;10.10;99.90;;;;;;5055983;28;20040;-61
2022/12/24 03:13:11;;;;;;;41.08;5.93;;;10.10;99.90;;;;;;5055233;28;20117;-61
2022/12/24 03:15:38;;;;;;;32.47;5.65;;;10.00;99.90;;;;;;4999116;28;20496;-61
2022/12/24 03:18:07;;;;;;;34.53;5.28;;;10.10;99.90;;;;;;5045736;28;20045;-61
2022/12/24 03:20:39;;;;;;;34.80;5.80;;;10.10;99.90;;;;;;5062196;28;20041;-60
2022/12/24 03:23:05;;;;;;;26.98;4.18;;;10.00;99.90;;;;;;5058949;28;20559;-61
2022/12/24 03:25:33;;;;;;;32.63;5.22;;;10.00;99.90;;;;;;5054256;28;20048;-61
2022/12/24 03:28:02;;;;;;;34.40;5.70;;;10.10;99.90;;;;;;5056956;28;20419;-61
2022/12/24 03:30:28;;;;;;;35.15;5.43;;;10.20;99.90;;;;;;5055850;28;20032;-62
2022/12/24 03:32:53;;;;;;;36.33;5.43;;;10.20;99.90;;;;;;5060088;28;20036;-62
2022/12/24 03:35:19;;;;;;;31.60;5.28;;;10.30;99.90;;;;;;5053731;28;20094;-62
2022/12/24 03:37:45;;;;;;;30.25;5.05;;;10.30;99.90;;;;;;5057618;28;20492;-61
2022/12/24 03:40:11;;;;;;;33.70;6.05;;;10.40;99.90;;;;;;5055039;28;20032;-61
2022/12/24 03:42:36;;;;;;;34.97;5.25;;;10.40;99.90;;;;;;5055107;28;20029;-61
2022/12/24 03:45:03;;;;;;;36.55;5.55;;;10.40;99.90;;;;;;5056397;28;20116;-61
2022/12/24 03:47:29;;;;;;;33.83;5.00;;;10.50;99.90;;;;;;5055930;28;20057;-60
2022/12/24 03:49:55;;;;;;;36.55;5.68;;;10.40;99.90;;;;;;5059135;28;20024;-61
2022/12/24 03:52:20;;;;;;;32.53;6.00;;;10.40;99.90;;;;;;5057852;28;20041;-61
2022/12/24 03:54:46;;;;;;;25.02;4.95;;;10.40;99.90;;;;;;5056137;28;20032;-61
2022/12/24 03:57:11;;;;;;;34.17;5.10;;;10.40;99.90;;;;;;5052793;28;20035;-61
2022/12/24 03:59:37;;;;;;;26.63;4.47;;;10.40;99.90;;;;;;5053173;28;20033;-62
2022/12/24 04:02:02;;;;;;;28.38;4.82;;;10.50;99.90;;;;;;5054032;28;20025;-63
2022/12/24 04:04:28;;;;;;;25.58;4.95;;;10.50;99.90;;;;;;5056804;28;20661;-62
2022/12/24 04:06:54;;;;;;;27.58;4.57;;;10.50;99.90;;;;;;5056760;28;20505;-62
2022/12/24 04:09:19;;;;;;;23.45;4.28;;;10.50;99.90;;;;;;5057300;28;20119;-63
2022/12/24 04:11:45;;;;;;;28.35;3.90;;;10.50;99.90;;;;;;5053907;28;20398;-62
2022/12/24 04:14:10;;;;;;;22.08;4.10;;;10.50;99.90;;;;;;5054325;28;20033;-63
2022/12/24 04:16:36;;;;;;;23.52;4.13;;;10.50;99.90;;;;;;5057962;28;20028;-63
2022/12/24 04:19:01;;;;;;;23.88;4.95;;;10.50;99.90;;;;;;5059816;28;20036;-63
2022/12/24 04:21:27;;;;;;;20.67;4.07;;;10.50;99.90;;;;;;5055516;28;20037;-62
2022/12/24 04:23:53;;;;;;;21.85;4.63;;;10.50;99.90;;;;;;5051714;28;20659;-62
2022/12/24 04:26:18;;;;;;;20.70;3.80;;;10.50;99.90;;;;;;5054211;28;20044;-63
2022/12/24 04:28:44;;;;;;;25.48;4.22;;;10.50;99.90;;;;;;5052843;28;20041;-62
2022/12/24 04:31:13;;;;;;;24.40;4.50;;;10.50;99.90;;;;;;5054142;28;20599;-62
2022/12/24 04:33:38;;;;;;;19.23;4.20;;;10.50;99.90;;;;;;5054645;28;20091;-61
2022/12/24 04:36:06;;;;;;;22.90;3.55;;;10.50;99.90;;;;;;5055107;28;20056;-62
2022/12/24 04:38:32;;;;;;;23.50;4.13;;;10.50;99.90;;;;;;5055901;28;20159;-61
2022/12/24 04:41:13;;;;;;;22.67;4.50;;;10.50;99.90;;;;;;5052102;28;20504;-61
2022/12/24 04:43:38;;;;;;;20.98;4.25;;;10.50;99.90;;;;;;5056984;28;20127;-61
2022/12/24 04:46:17;;;;;;;27.63;4.60;;;10.50;99.90;;;;;;5051942;28;20248;-61
2022/12/24 04:48:44;;;;;;;19.50;3.78;;;10.50;99.90;;;;;;5058896;28;20071;-61
2022/12/24 04:51:10;;;;;;;21.85;4.15;;;10.50;99.90;;;;;;5057663;28;20038;-62
2022/12/24 04:53:37;;;;;;;24.63;4.55;;;10.50;99.90;;;;;;5055562;28;20115;-63
2022/12/24 04:56:03;;;;;;;23.15;4.65;;;10.50;99.90;;;;;;5054307;28;20079;-61
2022/12/24 04:58:29;;;;;;;21.55;4.53;;;10.60;99.90;;;;;;5055175;28;20036;-61
2022/12/24 05:00:54;;;;;;;24.70;4.15;;;10.60;99.90;;;;;;5055212;28;20044;-61
2022/12/24 05:03:20;;;;;;;21.70;4.43;;;10.60;99.90;;;;;;5054819;28;20488;-61
2022/12/24 05:05:46;;;;;;;30.55;4.97;;;10.50;99.90;;;;;;5054161;28;20124;-61
2022/12/24 05:08:12;;;;;;;22.80;4.40;;;10.40;99.90;;;;;;5055089;28;20136;-62
2022/12/24 05:10:37;;;;;;;19.02;4.18;;;10.50;99.90;;;;;;5052751;28;20071;-61
2022/12/24 05:13:03;;;;;;;25.90;4.32;;;10.50;99.90;;;;;;5056075;28;20037;-60
2022/12/24 05:15:29;;;;;;;27.08;4.32;;;10.50;99.90;;;;;;5061886;28;20032;-61
2022/12/24 05:17:54;;;;;;;27.98;4.63;;;10.60;99.90;;;;;;5055257;28;20074;-62
2022/12/24 05:20:20;;;;;;;21.98;4.10;;;10.60;99.90;;;;;;5056351;28;20045;-60
2022/12/24 05:28:20;;;;;;;30.42;6.13;;;10.50;99.90;;;;;;5057783;28;20048;-61
2022/12/24 05:30:46;;;;;;;25.90;4.80;;;10.50;99.90;;;;;;5062728;28;20396;-61
2022/12/24 05:33:11;;;;;;;32.17;5.28;;;10.50;99.90;;;;;;5057976;28;20086;-62
2022/12/24 05:35:37;;;;;;;29.10;5.30;;;10.50;99.90;;;;;;5063598;28;20883;-61
2022/12/24 05:38:02;;;;;;;25.33;4.40;;;10.60;99.90;;;;;;5051047;28;20041;-62
2022/12/24 05:40:28;;;;;;;20.95;4.68;;;10.60;99.90;;;;;;5058864;28;20035;-62
2022/12/24 05:42:53;;;;;;;23.23;4.45;;;10.60;99.90;;;;;;5060858;28;20035;-62
2022/12/24 05:45:19;;;;;;;21.40;4.40;;;10.70;99.90;;;;;;5058802;28;20055;-61
2022/12/24 05:47:44;;;;;;;26.15;4.07;;;10.60;99.90;;;;;;5059454;28;20079;-63
2022/12/24 05:50:10;;;;;;;28.30;5.30;;;10.70;99.90;;;;;;5059274;28;20040;-61
2022/12/24 05:52:36;;;;;;;24.63;4.57;;;10.70;99.90;;;;;;5063094;28;20697;-61
2022/12/24 05:55:01;;;;;;;25.30;4.47;;;10.60;99.90;;;;;;5062311;28;20064;-61
2022/12/24 05:57:27;;;;;;;28.35;4.80;;;10.70;99.90;;;;;;5064382;28;20036;-62
2022/12/24 05:59:52;;;;;;;26.63;5.03;;;10.60;99.90;;;;;;5059698;28;20064;-62
2022/12/24 06:02:18;;;;;;;25.88;5.10;;;10.60;99.90;;;;;;5064380;28;20139;-61
2022/12/24 06:04:43;;;;;;;24.75;5.53;;;10.70;99.90;;;;;;5058158;28;20067;-61
2022/12/24 06:07:09;;;;;;;28.80;4.80;;;10.60;99.90;;;;;;5062679;28;20029;-62
2022/12/24 06:09:35;;;;;;;25.50;4.70;;;10.70;99.90;;;;;;5059405;28;20028;-61
2022/12/24 06:12:00;;;;;;;30.70;5.88;;;10.60;99.90;;;;;;5058225;28;20116;-61
2022/12/24 06:14:26;;;;;;;27.25;5.85;;;10.50;99.90;;;;;;5051550;28;20737;-61
2022/12/24 06:16:51;;;;;;;23.27;4.50;;;10.50;99.90;;;;;;5061484;28;20029;-59
2022/12/24 06:19:17;;;;;;;25.38;5.00;;;10.60;99.90;;;;;;5060506;28;20072;-60
2022/12/24 06:21:42;;;;;;;23.73;4.40;;;10.60;99.90;;;;;;5058351;28;20670;-60
2022/12/24 06:24:08;;;;;;;25.35;4.90;;;10.60;99.90;;;;;;5059225;28;20640;-62
2022/12/24 06:26:34;;;;;;;31.35;5.72;;;10.60;99.90;;;;;;5062733;28;20079;-61
2022/12/24 06:28:59;;;;;;;23.35;5.55;;;10.60;99.90;;;;;;5052128;28;20047;-62
2022/12/24 06:31:25;;;;;;;29.15;5.22;;;10.60;99.90;;;;;;5065386;28;20044;-61
2022/12/24 06:33:51;;;;;;;23.67;4.78;;;10.60;99.90;;;;;;5060179;28;20530;-61
2022/12/24 06:36:20;;;;;;;28.40;5.05;;;10.60;99.90;;;;;;5061158;28;20488;-62
2022/12/24 06:38:47;;;;;;;22.95;4.80;;;10.50;99.90;;;;;;5057626;28;20114;-62
2022/12/24 06:41:13;;;;;;;20.08;4.55;;;10.60;99.90;;;;;;5054157;28;20492;-61
2022/12/24 06:43:43;;;;;;;27.30;5.13;;;10.60;99.90;;;;;;5054705;28;20135;-61
2022/12/24 06:46:08;;;;;;;25.83;5.50;;;10.60;99.90;;;;;;5066138;28;20052;-63
2022/12/24 06:48:34;;;;;;;29.88;5.30;;;10.60;99.90;;;;;;5056680;28;20040;-61
2022/12/24 06:51:02;;;;;;;22.50;5.10;;;10.60;99.90;;;;;;5063891;28;20040;-61
2022/12/24 06:53:27;;;;;;;25.52;5.95;;;10.60;99.90;;;;;;5060395;28;20036;-61
2022/12/24 06:56:07;;;;;;;28.13;5.85;;;10.60;99.90;;;;;;5055938;28;20400;-61
2022/12/24 06:58:33;;;;;;;28.42;5.10;;;10.50;99.90;;;;;;5059909;28;20037;-61
2022/12/24 07:01:04;;;;;;;23.83;4.72;;;10.50;99.90;;;;;;5061032;28;20060;-61
2022/12/24 07:03:31;;;;;;;32.58;5.70;;;10.50;99.90;;;;;;5060742;28;20086;-63
2022/12/24 07:05:56;;;;;;;33.35;5.63;;;10.60;99.90;;;;;;5061462;28;20072;-61
2022/12/24 07:08:22;;;;;;;26.88;5.28;;;10.50;99.90;;;;;;5062387;28;20055;-61
2022/12/24 07:10:49;;;;;;;32.75;6.10;;;10.60;99.90;;;;;;5054699;28;20579;-62
2022/12/24 07:13:15;;;;;;;38.80;5.75;;;10.50;99.90;;;;;;5063012;28;20033;-61
2022/12/24 07:15:40;;;;;;;26.48;5.10;;;10.50;99.90;;;;;;5059914;28;20561;-61
2022/12/24 07:18:06;;;;;;;31.50;5.75;;;10.50;99.90;;;;;;5062221;28;20036;-61
2022/12/24 07:20:31;;;;;;;31.10;5.85;;;10.50;99.90;;;;;;5060113;28;20511;-62
2022/12/24 07:22:57;;;;;;;29.92;5.90;;;10.50;99.90;;;;;;5064986;28;20036;-63
2022/12/24 07:25:23;;;;;;;40.20;6.28;;;10.50;99.90;;;;;;5057454;28;20060;-61
2022/12/24 07:27:48;;;;;;;31.25;6.00;;;10.50;99.90;;;;;;5066406;28;20383;-62
2022/12/24 07:30:14;;;;;;;33.13;6.25;;;10.40;99.90;;;;;;5064988;28;20032;-61
2022/12/24 07:32:40;;;;;;;30.38;5.95;;;10.40;99.90;;;;;;5071847;28;20033;-61
2022/12/24 07:35:06;;;;;;;35.25;5.70;;;10.30;99.90;;;;;;5067757;28;20032;-62
2022/12/24 07:37:32;;;;;;;31.58;5.43;;;10.20;99.90;;;;;;5063836;28;20055;-62
2022/12/24 07:39:57;;;;;;;30.50;5.97;;;10.20;99.90;;;;;;5054037;28;20032;-62
2022/12/24 07:42:23;;;;;;;37.92;6.20;;;10.30;99.90;;;;;;5058889;28;20066;-61
2022/12/24 07:44:49;;;;;;;33.55;6.38;;;10.40;99.90;;;;;;5064043;28;20076;-62
2022/12/24 07:47:15;;;;;;;37.63;5.80;;;10.40;99.90;;;;;;5066534;28;20028;-62
2022/12/24 07:49:41;;;;;;;34.22;6.30;;;10.40;99.90;;;;;;5066214;28;20589;-61
2022/12/24 07:52:06;;;;;;;37.00;5.97;;;10.50;99.90;;;;;;5063285;28;20028;-62
2022/12/24 07:54:32;;;;;;;32.50;5.85;;;10.40;99.90;;;;;;5066586;28;20083;-61
2022/12/24 07:56:58;;;;;;;34.95;6.03;;;10.40;99.90;;;;;;5064930;28;20031;-61
2022/12/24 07:59:23;;;;;;;32.45;5.72;;;10.30;99.90;;;;;;5061789;28;20032;-62
2022/12/24 08:01:49;;;;;;;35.47;5.53;;;10.30;99.90;;;;;;5062073;28;20380;-61
2022/12/24 08:04:14;;;;;;;34.33;6.28;;;10.40;99.90;;;;;;5062485;28;20063;-62
2022/12/24 08:06:40;;;;;;;32.67;5.40;;;10.50;99.90;;;;;;5062583;28;20450;-61
2022/12/24 08:09:06;;;;;;;31.33;5.88;;;10.30;99.90;;;;;;5052951;28;20561;-62
2022/12/24 08:11:31;;;;;;;32.47;6.10;;;10.30;99.90;;;;;;5051466;28;20033;-62
2022/12/24 08:13:57;;;;;;;37.40;6.40;;;10.30;99.90;;;;;;5060680;28;20090;-61
2022/12/24 08:16:22;;;;;;;25.17;5.38;;;10.30;99.90;;;;;;5064309;28;20147;-61
2022/12/24 08:18:48;;;;;;;35.05;5.32;;;10.40;99.90;;;;;;5063680;28;20411;-62
2022/12/24 08:21:14;;;;;;;40.72;6.05;;;10.50;99.90;;;;;;5068780;28;20036;-61
2022/12/24 08:23:39;;;;;;;38.03;6.93;;;10.40;99.90;;;;;;5061768;28;20036;-60
2022/12/24 08:26:09;;;;;;;34.83;6.53;;;10.40;99.90;;;;;;5057415;28;20389;-60
2022/12/24 08:28:35;;;;;;;34.35;6.95;;;10.30;99.90;;;;;;5063460;28;20483;-61
2022/12/24 08:31:01;;;;;;;36.28;7.07;;;10.30;99.90;;;;;;5060714;28;20063;-61
2022/12/24 08:33:27;;;;;;;36.20;5.90;;;10.40;99.90;;;;;;5061881;28;20032;-60
2022/12/24 08:35:54;;;;;;;37.67;6.18;;;10.40;99.90;;;;;;5061536;28;20044;-61
2022/12/24 08:38:20;;;;;;;39.35;6.70;;;10.50;99.90;;;;;;5060728;28;20510;-60
2022/12/24 08:40:48;;;;;;;41.63;6.20;;;10.60;99.90;;;;;;5060501;28;20029;-60
2022/12/24 08:43:14;;;;;;;30.50;5.20;;;10.50;99.90;;;;;;5053226;28;20490;-60
2022/12/24 08:45:40;;;;;;;41.00;7.72;;;10.40;99.90;;;;;;5066987;28;20044;-60
2022/12/24 08:48:07;;;;;;;37.25;5.80;;;10.50;99.90;;;;;;5065069;28;20051;-61
2022/12/24 08:50:33;;;;;;;41.72;6.07;;;10.50;99.90;;;;;;5058578;28;20047;-61
2022/12/24 08:52:59;;;;;;;34.10;6.50;;;10.50;99.90;;;;;;5061408;28;20476;-60
2022/12/24 08:55:24;;;;;;;38.00;5.75;;;10.50;99.90;;;;;;5058491;28;20029;-60
2022/12/24 08:57:50;;;;;;;37.58;6.93;;;10.60;99.90;;;;;;5054669;28;20040;-60
2022/12/24 09:00:16;;;;;;;35.42;6.70;;;10.60;99.90;;;;;;5064143;28;20036;-60
2022/12/24 09:02:42;;;;;;;34.90;6.15;;;10.70;99.90;;;;;;5065679;28;20086;-61
2022/12/24 09:05:07;;;;;;;28.65;6.25;;;10.70;99.90;;;;;;5057317;28;20055;-61
2022/12/24 09:07:33;;;;;;;36.65;6.28;;;10.70;99.90;;;;;;5064466;28;20040;-61
2022/12/24 09:09:58;;;;;;;35.13;6.25;;;10.80;99.90;;;;;;5057578;28;20028;-61
2022/12/24 09:12:24;;;;;;;29.77;5.55;;;10.90;99.90;;;;;;5060683;28;20041;-60
2022/12/24 09:14:51;;;;;;;36.45;7.20;;;10.80;99.90;;;;;;5061939;28;20044;-62
2022/12/24 09:17:16;;;;;;;40.63;7.15;;;10.80;99.90;;;;;;5062506;28;20067;-61
2022/12/24 09:19:42;;;;;;;29.02;5.18;;;10.80;99.90;;;;;;5062858;28;20438;-60
2022/12/24 09:22:08;;;;;;;30.50;6.25;;;10.80;99.90;;;;;;5058858;28;20434;-62
2022/12/24 09:24:35;;;;;;;40.83;6.45;;;10.80;99.90;;;;;;5066207;28;20044;-61
2022/12/24 09:27:01;;;;;;;28.30;5.50;;;10.80;99.90;;;;;;5064485;28;20044;-61
2022/12/24 09:29:27;;;;;;;31.90;5.95;;;10.80;99.90;;;;;;5065041;28;20488;-60
2022/12/24 09:31:54;;;;;;;30.65;6.35;;;10.80;99.90;;;;;;5054912;28;20040;-61
2022/12/24 09:34:19;;;;;;;39.15;6.50;;;10.90;99.90;;;;;;5052986;28;20029;-61
2022/12/24 09:36:45;;;;;;;38.13;6.57;;;10.90;99.90;;;;;;5059545;28;20507;-60
2022/12/24 09:39:11;;;;;;;41.38;6.53;;;10.90;99.90;;;;;;5057723;28;20454;-61
2022/12/24 09:41:58;;;;;;;37.03;6.38;;;10.90;99.90;;;;;;5050542;28;20116;-61
2022/12/24 09:44:35;;;;;;;34.10;6.30;;;10.90;99.90;;;;;;5053262;28;20108;-60
2022/12/24 09:47:08;;;;;;;31.75;6.10;;;11.00;99.90;;;;;;5059940;28;20033;-60
2022/12/24 09:49:40;;;;;;;35.97;6.22;;;11.00;99.90;;;;;;5057956;28;20451;-61
2022/12/24 09:52:13;;;;;;;39.97;6.60;;;11.00;99.90;;;;;;5057515;28;20047;-60
2022/12/24 09:54:50;;;;;;;37.25;5.93;;;11.10;99.90;;;;;;5056021;28;20270;-61
2022/12/24 09:57:28;;;;;;;30.65;5.95;;;11.10;99.90;;;;;;5050813;28;20178;-60
2022/12/24 09:59:54;;;;;;;31.88;5.93;;;11.10;99.90;;;;;;5054216;28;20546;-61
2022/12/24 10:02:20;;;;;;;36.47;7.20;;;11.10;99.90;;;;;;5053538;28;20037;-61
2022/12/24 10:04:47;;;;;;;36.83;6.35;;;11.10;99.90;;;;;;5059390;28;20060;-61
2022/12/24 10:07:45;;;;;;;45.42;7.13;;;11.10;99.90;;;;;;5049537;28;20508;-61
2022/12/24 10:10:22;;;;;;;39.72;7.05;;;11.10;99.90;;;;;;5052000;28;20687;-61
2022/12/24 10:13:16;;;;;;;33.53;5.95;;;11.10;99.90;;;;;;5056269;28;20078;-62
2022/12/24 10:16:23;;;;;;;39.90;6.60;;;11.20;99.90;;;;;;5050604;28;20040;-61
2022/12/24 10:19:04;;;;;;;41.25;7.18;;;11.20;99.90;;;;;;5057284;28;20056;-61
2022/12/24 10:21:47;;;;;;;37.08;5.68;;;11.30;99.90;;;;;;5050895;28;20467;-60
2022/12/24 10:24:32;;;;;;;40.35;6.95;;;11.10;99.90;;;;;;5058257;28;20501;-61
2022/12/24 10:27:10;;;;;;;32.90;6.00;;;11.20;99.90;;;;;;5059716;28;20037;-61
2022/12/24 10:29:45;;;;;;;37.47;6.40;;;11.20;99.90;;;;;;5059059;28;20124;-61
2022/12/24 10:32:28;;;;;;;41.78;7.05;;;11.30;99.90;;;;;;5056225;28;20106;-61
2022/12/24 10:35:17;;;;;;;46.97;6.97;;;11.30;99.90;;;;;;5062617;28;20538;-61
2022/12/24 10:37:46;;;;;;;32.22;6.63;;;11.30;99.90;;;;;;5057172;28;20131;-61
2022/12/24 10:40:39;;;;;;;41.22;7.40;;;11.40;99.90;;;;;;5065370;28;20032;-61
2022/12/24 10:43:16;;;;;;;39.78;6.82;;;11.40;99.90;;;;;;5049140;28;20032;-61
2022/12/24 10:45:50;;;;;;;37.50;6.55;;;11.40;99.90;;;;;;5063029;28;20427;-62
2022/12/24 10:48:24;;;;;;;34.25;6.18;;;11.40;99.90;;;;;;5060330;28;20060;-63
2022/12/24 10:50:57;;;;;;;42.60;7.30;;;11.40;99.90;;;;;;5061087;28;20415;-62
2022/12/24 10:53:36;;;;;;;35.28;7.53;;;11.40;99.90;;;;;;5061764;28;20032;-61
2022/12/24 10:56:08;;;;;;;43.88;7.47;;;11.40;99.90;;;;;;5052316;28;20056;-62
2022/12/24 10:58:34;;;;;;;42.53;7.43;;;11.50;99.90;;;;;;5064240;28;20036;-62
2022/12/24 11:01:00;;;;;;;37.05;6.78;;;11.50;99.90;;;;;;5061329;28;20033;-62
2022/12/24 11:03:35;;;;;;;41.55;6.55;;;11.30;99.90;;;;;;5060533;28;20040;-62
2022/12/24 11:06:04;;;;;;;39.03;6.25;;;11.40;99.90;;;;;;5054862;28;20118;-61
2022/12/24 11:08:30;;;;;;;37.92;6.90;;;11.50;99.90;;;;;;5061025;28;20123;-64
2022/12/24 11:11:02;;;;;;;38.80;6.72;;;11.50;99.90;;;;;;5058854;28;20182;-61
2022/12/24 11:13:34;;;;;;;39.72;6.60;;;11.60;99.90;;;;;;5057370;28;20040;-62
2022/12/24 11:16:23;;;;;;;44.63;7.70;;;11.60;99.90;;;;;;5059741;28;20456;-63
2022/12/24 11:18:51;;;;;;;31.73;6.25;;;11.50;99.90;;;;;;5042141;28;20403;-62
2022/12/24 11:21:36;;;;;;;38.13;7.00;;;11.50;99.90;;;;;;5059668;28;20044;-62
2022/12/24 11:24:26;;;;;;;35.75;7.07;;;11.50;99.90;;;;;;5058179;28;20086;-62
2022/12/24 11:26:52;;;;;;;38.38;7.03;;;11.60;99.90;;;;;;5061679;28;20559;-62
2022/12/24 11:29:23;;;;;;;32.83;6.00;;;11.60;99.90;;;;;;5054470;28;20139;-62
2022/12/24 11:31:51;;;;;;;45.08;7.20;;;11.70;99.90;;;;;;5057700;28;20039;-62
2022/12/24 11:34:31;;;;;;;39.83;7.15;;;11.70;99.90;;;;;;5058687;28;20036;-62
2022/12/24 11:37:15;;;;;;;39.08;6.20;;;11.80;99.90;;;;;;5066733;28;20048;-61
2022/12/24 11:39:49;;;;;;;35.35;6.10;;;11.80;99.90;;;;;;5058268;28;20032;-61
2022/12/24 11:42:35;;;;;;;;;;;11.80;99.90;;;;;;5081564;28;20094;-61
2022/12/24 11:45:16;;;;;;;28.45;5.88;;;11.80;99.90;;;;;;5064342;28;20320;-61
2022/12/24 11:47:42;;;;;;;36.20;6.43;;;11.80;99.90;;;;;;5061464;28;20060;-61
2022/12/24 11:50:27;;;;;;;34.88;6.63;;;11.80;99.90;;;;;;5058264;28;20079;-61
2022/12/24 11:53:04;;;;;;;30.98;6.90;;;11.80;99.90;;;;;;5059082;28;20797;-61
2022/12/24 11:55:44;;;;;;;42.17;6.78;;;11.80;99.90;;;;;;5058242;28;20036;-61
2022/12/24 11:58:36;;;;;;;34.95;6.28;;;11.80;99.90;;;;;;5063176;28;20028;-61
2022/12/24 12:01:23;;;;;;;37.22;6.57;;;11.80;99.90;;;;;;5055455;28;20151;-63
2022/12/24 12:03:52;;;;;;;36.28;5.85;;;11.70;99.90;;;;;;5060394;28;20044;-62
2022/12/24 12:06:34;;;;;;;32.95;6.63;;;11.70;99.90;;;;;;5062876;28;20048;-62
2022/12/24 12:09:06;;;;;;;32.53;6.50;;;11.80;99.90;;;;;;5063895;28;20058;-60
2022/12/24 12:11:34;;;;;;;38.17;6.68;;;11.90;99.90;;;;;;5059479;28;20029;-63
2022/12/24 12:14:02;;;;;;;28.25;6.50;;;11.90;99.90;;;;;;5063956;28;20032;-62
2022/12/24 12:17:25;;;;;;;30.58;6.00;;;12.00;99.90;;;;;;5058694;28;20446;-63
2022/12/24 12:19:50;;;;;;;33.58;6.20;;;12.00;99.90;;;;;;5053737;28;20102;-63
2022/12/24 12:22:29;;;;;;;32.17;5.65;;;12.00;99.90;;;;;;5062593;28;20102;-63
2022/12/24 12:24:56;;;;;;;36.03;6.10;;;12.10;99.90;;;;;;5060151;28;20060;-63
2022/12/24 12:27:36;;;;;;;30.48;6.22;;;12.20;99.90;;;;;;5059955;28;20048;-63
2022/12/24 12:30:23;;;;;;;24.40;6.05;;;12.20;99.90;;;;;;5055913;28;20338;-63
2022/12/24 12:33:21;;;;;;;27.48;6.28;;;12.10;99.90;;;;;;5063362;28;20380;-63
2022/12/24 12:35:47;;;;;;;30.98;5.70;;;12.10;99.90;;;;;;5063487;28;20080;-61
2022/12/24 12:38:21;;;;;;;34.10;5.82;;;12.10;99.90;;;;;;5059033;28;20032;-61
2022/12/24 12:40:49;;;;;;;36.33;6.90;;;12.10;99.90;;;;;;5063145;28;20025;-62
2022/12/24 12:43:31;;;;;;;31.80;6.55;;;12.00;99.90;;;;;;5061371;28;20037;-63
2022/12/24 12:46:14;;;;;;;32.17;5.32;;;12.10;99.90;;;;;;5063982;28;20404;-62
2022/12/24 12:49:12;;;;;;;33.85;5.80;;;12.00;99.90;;;;;;5055561;28;20414;-62
2022/12/24 12:52:02;;;;;;;31.40;6.13;;;12.10;99.90;;;;;;5031571;28;20456;-62
2022/12/24 12:54:28;;;;;;;28.58;5.55;;;12.00;99.90;;;;;;5063411;28;20037;-62
2022/12/24 12:57:00;;;;;;;33.65;6.22;;;12.00;99.90;;;;;;5062947;28;20529;-61
2022/12/24 12:59:47;;;;;;;33.78;6.00;;;12.00;99.90;;;;;;5058905;28;20065;-62
2022/12/24 13:02:34;;;;;;;27.38;7.15;;;12.10;99.90;;;;;;5050793;28;20048;-61